Time;durP1;ratioP1;P1;durP2;ratioP2;P2;SDS_P1;SDS_P2;PMS_P1;PMS_P2;Temp;Humidity;BMP_temperature;BMP_pressure;BME280_temperature;BME280_humidity;BME280_pressure;Samples;Min_cycle;Max_cycle;Signal;HPM_P1;HPM_P2
2022/05/15 00:01:59;;;;;;;24.70;6.07;;;;;;;-145.18;100.00;46638.91;5049170;28;20079;-80
2022/05/15 00:04:24;;;;;;;25.47;7.03;;;;;;;-145.18;100.00;46631.09;5048981;28;20088;-80
2022/05/15 00:06:50;;;;;;;35.27;6.90;;;;;;;-145.18;100.00;46627.19;5051402;28;20401;-81
2022/05/15 00:09:15;;;;;;;31.63;5.87;;;;;;;-145.18;100.00;46640.88;5052772;28;20033;-81
2022/05/15 00:11:41;;;;;;;29.67;6.20;;;;;;;-145.18;100.00;46625.22;5052497;28;20033;-81
2022/05/15 00:14:06;;;;;;;34.17;6.70;;;;;;;-145.18;100.00;46607.66;5052738;28;20025;-81
2022/05/15 00:16:32;;;;;;;19.60;5.80;;;;;;;-145.18;100.00;46625.22;5052646;28;20102;-81
2022/05/15 00:18:58;;;;;;;30.83;6.40;;;;;;;-145.18;100.00;46617.41;5053097;28;20444;-81
2022/05/15 00:21:25;;;;;;;30.33;6.40;;;;;;;-145.18;100.00;46619.38;5052314;28;20562;-81
2022/05/15 00:23:51;;;;;;;27.13;5.43;;;;;;;-145.18;100.00;46609.59;5052546;28;20051;-81
2022/05/15 00:26:17;;;;;;;30.13;7.60;;;;;;;-145.18;100.00;46609.59;5051946;28;20040;-82
2022/05/15 00:28:42;;;;;;;31.97;6.40;;;;;;;-145.18;100.00;46595.94;5052731;28;20044;-82
2022/05/15 00:31:08;;;;;;;27.90;6.40;;;;;;;-145.18;100.00;46611.56;5052069;28;20124;-82
2022/05/15 00:33:33;;;;;;;31.57;7.50;;;;;;;-145.18;100.00;46599.84;5052502;28;20044;-81
2022/05/15 00:35:59;;;;;;;29.73;8.20;;;;;;;-145.18;100.00;46592.03;5051943;28;20036;-82
2022/05/15 00:38:25;;;;;;;30.00;6.73;;;;;;;-145.18;100.00;46599.84;5051590;28;20060;-81
2022/05/15 00:40:52;;;;;;;29.17;6.97;;;;;;;-145.18;100.00;46597.88;5052431;28;20029;-80
2022/05/15 00:43:44;;;;;;;30.13;7.43;;;;;;;-145.18;100.00;46590.06;5051573;28;20033;-81
2022/05/15 00:46:22;;;;;;;31.70;7.47;;;;;;;-145.18;100.00;46601.78;5051807;28;20037;-80
2022/05/15 00:48:50;;;;;;;28.90;6.17;;;;;;;-145.18;100.00;46607.66;5052182;28;20270;-80
2022/05/15 00:51:31;;;;;;;29.20;6.87;;;;;;;-145.18;100.00;46590.06;5051271;28;20271;-81
2022/05/15 00:54:12;;;;;;;32.13;7.07;;;;;;;-145.18;100.00;46582.25;5052030;28;20610;-81
2022/05/15 00:56:42;;;;;;;26.77;6.57;;;;;;;-145.18;100.00;46593.97;5052093;28;20037;-82
2022/05/15 00:59:12;;;;;;;30.87;6.70;;;;;;;-145.18;100.00;46578.34;5051645;28;20258;-80
2022/05/15 01:01:37;;;;;;;28.60;7.00;;;;;;;-145.18;100.00;46578.34;5051160;28;20266;-82
2022/05/15 01:04:03;;;;;;;24.97;7.97;;;;;;;-145.18;100.00;46570.53;5051446;28;20290;-81
2022/05/15 01:06:30;;;;;;;28.33;7.33;;;;;;;-145.18;100.00;46574.44;5051665;28;20147;-81
2022/05/15 01:08:55;;;;;;;25.60;6.17;;;;;;;-145.18;100.00;46578.34;5051704;28;20033;-81
2022/05/15 01:11:24;;;;;;;29.53;7.33;;;;;;;-145.18;100.00;46578.34;5050929;28;20672;-81
2022/05/15 01:13:52;;;;;;;20.57;6.17;;;;;;;-145.18;100.00;46582.25;5051588;28;20493;-80
2022/05/15 01:16:21;;;;;;;27.57;7.43;;;;;;;-145.18;100.00;46574.44;5051183;28;20379;-80
2022/05/15 01:18:47;;;;;;;31.47;7.67;;;;;;;-145.18;100.00;46582.25;5050939;28;20021;-81
2022/05/15 01:21:24;;;;;;;25.40;6.07;;;;;;;-145.18;100.00;46576.41;5051295;28;20258;-79
2022/05/15 01:23:50;;;;;;;26.43;7.67;;;;;;;-145.18;100.00;46576.41;5051261;28;20535;-79
2022/05/15 01:26:16;;;;;;;31.30;7.57;;;;;;;-145.18;100.00;46572.50;5051117;28;20040;-79
2022/05/15 01:28:45;;;;;;;34.97;7.07;;;;;;;-145.18;100.00;46574.44;5051284;28;20266;-78
2022/05/15 01:31:11;;;;;;;29.87;6.40;;;;;;;-145.18;100.00;46576.41;5051219;28;20033;-79
2022/05/15 01:33:36;;;;;;;30.10;7.80;;;;;;;-145.18;100.00;46572.50;5050829;28;20269;-79
2022/05/15 01:36:01;;;;;;;31.37;7.20;;;;;;;-145.18;100.00;46580.31;5051005;28;20771;-79
2022/05/15 01:38:27;;;;;;;28.57;7.20;;;;;;;-145.18;100.00;46576.41;5050611;28;20025;-80
2022/05/15 01:40:52;;;;;;;27.10;7.30;;;;;;;-145.18;100.00;46576.41;5051155;28;20194;-80
2022/05/15 01:43:17;;;;;;;33.43;7.37;;;;;;;-145.18;100.00;46576.41;5050287;28;20053;-79
2022/05/15 01:45:43;;;;;;;28.53;6.90;;;;;;;-145.18;100.00;46570.53;5050896;28;20512;-80
2022/05/15 01:48:08;;;;;;;26.30;7.00;;;;;;;-145.18;100.00;46564.69;5050431;28;20028;-80
2022/05/15 01:50:34;;;;;;;28.47;5.60;;;;;;;-145.18;100.00;46562.72;5051004;28;20025;-81
2022/05/15 01:53:00;;;;;;;33.37;8.27;;;;;;;-145.18;100.00;46558.81;5050531;28;20497;-80
2022/05/15 01:55:25;;;;;;;32.63;7.80;;;;;;;-145.18;100.00;46562.72;5050923;28;20040;-81
2022/05/15 01:57:51;;;;;;;28.97;7.03;;;;;;;-145.18;100.00;46562.72;5050492;28;20022;-80
2022/05/15 02:00:21;;;;;;;22.90;6.27;;;;;;;-145.18;100.00;46556.88;5046892;28;20033;-81
2022/05/15 02:02:48;;;;;;;24.07;6.27;;;;;;;-145.18;100.00;46560.78;5271287;22;20070;-79
2022/05/15 02:05:13;;;;;;;27.73;6.50;;;;;;;-145.18;100.00;46558.81;5063812;28;20637;-78
2022/05/15 02:07:39;;;;;;;24.40;6.83;;;;;;;-145.18;100.00;46560.78;5070552;28;20289;-78
2022/05/15 02:10:06;;;;;;;36.63;8.17;;;;;;;-145.18;100.00;46554.91;5060095;28;20079;-79
2022/05/15 02:12:31;;;;;;;31.23;6.60;;;;;;;-145.18;100.00;46554.91;5032488;28;20039;-82
2022/05/15 02:14:57;;;;;;;35.00;7.03;;;;;;;-145.18;100.00;46556.88;5049288;28;20349;-82
2022/05/15 02:17:23;;;;;;;29.83;6.80;;;;;;;-145.18;100.00;46558.81;5049194;28;20060;-82
2022/05/15 02:19:48;;;;;;;27.97;6.93;;;;;;;-145.18;100.00;46556.88;5050304;28;20036;-80
2022/05/15 02:22:14;;;;;;;34.17;6.97;;;;;;;-145.18;100.00;46556.88;5050020;28;20460;-80
2022/05/15 02:24:39;;;;;;;36.60;8.23;;;;;;;-145.18;100.00;46554.91;5050578;28;20449;-80
2022/05/15 02:27:05;;;;;;;31.90;7.17;;;;;;;-145.18;100.00;46552.97;5049665;28;20516;-79
2022/05/15 02:29:31;;;;;;;27.77;7.80;;;;;;;-145.18;100.00;46554.91;5053274;28;20305;-79
2022/05/15 02:31:56;;;;;;;35.10;7.07;;;;;;;-145.18;100.00;46547.09;5069269;28;20283;-79
2022/05/15 02:34:22;;;;;;;38.53;7.93;;;;;;;-145.18;100.00;46547.09;5070571;28;20032;-79
2022/05/15 02:36:47;;;;;;;30.03;7.23;;;;;;;-145.18;100.00;46551.00;5069901;28;20385;-79
2022/05/15 02:39:12;;;;;;;34.43;8.03;;;;;;;-145.18;100.00;46552.97;5069812;28;20075;-79
2022/05/15 02:41:38;;;;;;;27.33;7.03;;;;;;;-145.18;100.00;46552.97;5070085;28;20082;-79
2022/05/15 02:44:03;;;;;;;30.00;7.23;;;;;;;-145.18;100.00;46556.88;5069726;28;20091;-78
2022/05/15 02:46:29;;;;;;;28.33;7.50;;;;;;;-145.18;100.00;46554.91;5064535;28;20603;-77
2022/05/15 02:51:38;;;;;;;31.23;8.40;;;;;;;-145.18;100.00;46556.88;5050442;28;20040;-77
2022/05/15 02:54:03;;;;;;;27.70;7.13;;;;;;;-145.18;100.00;46556.88;5049467;28;20273;-77
2022/05/15 02:56:32;;;;;;;32.10;7.27;;;;;;;-145.18;100.00;46570.53;5049528;28;20070;-77
2022/05/15 02:58:57;;;;;;;38.40;9.73;;;;;;;-145.18;100.00;46574.44;5049607;28;20436;-77
2022/05/15 03:01:23;;;;;;;30.63;7.90;;;;;;;-145.18;100.00;46574.44;5049677;28;20700;-77
2022/05/15 03:03:49;;;;;;;32.20;8.93;;;;;;;-145.18;100.00;46580.31;5049357;28;20075;-77
2022/05/15 03:06:15;;;;;;;28.33;7.87;;;;;;;-145.18;100.00;46580.31;5049470;28;20029;-78
2022/05/15 03:08:43;;;;;;;37.00;7.93;;;;;;;-145.18;100.00;46582.25;5048024;28;20426;-78
2022/05/15 03:11:09;;;;;;;29.23;7.13;;;;;;;-145.18;100.00;46578.34;5049460;28;20285;-78
2022/05/15 03:13:36;;;;;;;35.60;8.03;;;;;;;-145.18;100.00;46572.50;5049431;28;20335;-78
2022/05/15 03:16:02;;;;;;;32.60;7.03;;;;;;;-145.18;100.00;46574.44;5049503;28;20282;-78
2022/05/15 03:18:28;;;;;;;29.20;7.67;;;;;;;-145.18;100.00;46568.59;5049325;28;20808;-78
2022/05/15 03:20:54;;;;;;;26.43;7.50;;;;;;;-145.18;100.00;46568.59;5049595;28;20302;-78
2022/05/15 03:23:19;;;;;;;24.23;8.67;;;;;;;-145.18;100.00;46570.53;5049194;28;20041;-78
2022/05/15 03:25:45;;;;;;;27.60;7.47;;;;;;;-145.18;100.00;46572.50;5049803;28;20033;-78
2022/05/15 03:28:10;;;;;;;31.80;7.50;;;;;;;-145.18;100.00;46578.34;5049185;28;20124;-78
2022/05/15 03:30:37;;;;;;;32.83;8.17;;;;;;;-145.18;100.00;46580.31;5049556;28;20036;-79
2022/05/15 03:33:03;;;;;;;35.37;7.93;;;;;;;-145.18;100.00;46627.19;5049020;28;20162;-80
2022/05/15 03:35:29;;;;;;;37.67;8.97;;;;;;;-145.18;100.00;46631.09;5049578;28;20269;-79
2022/05/15 03:37:54;;;;;;;22.47;7.23;;;;;;;-145.18;100.00;46635.00;5049147;28;20266;-79
2022/05/15 03:40:20;;;;;;;39.87;8.73;;;;;;;-145.18;100.00;46640.88;5050042;28;20039;-82
2022/05/15 03:42:45;;;;;;;30.63;7.03;;;;;;;-145.18;100.00;46654.53;5052922;28;20136;-79
2022/05/15 03:45:11;;;;;;;28.53;8.20;;;;;;;-145.18;100.00;46660.41;5035459;28;20033;-79
2022/05/15 03:47:44;;;;;;;32.70;8.03;;;;;;;-145.18;100.00;46625.22;5053159;28;20123;-79
2022/05/15 03:50:09;;;;;;;33.20;7.77;;;;;;;-145.18;100.00;46631.09;5053185;28;20595;-79
2022/05/15 03:52:35;;;;;;;37.27;8.50;;;;;;;-145.18;100.00;46640.88;5034953;28;20361;-80
2022/05/15 03:55:00;;;;;;;34.90;7.77;;;;;;;-145.18;100.00;46648.69;5053381;28;20025;-79
2022/05/15 03:57:25;;;;;;;34.77;9.23;;;;;;;-145.18;100.00;46644.78;5052953;28;20037;-80
2022/05/15 03:59:51;;;;;;;33.83;7.50;;;;;;;-145.18;100.00;46642.81;5035543;28;20374;-78
2022/05/15 04:02:16;;;;;;;28.23;8.37;;;;;;;-145.18;100.00;46642.81;5052512;28;20048;-78
2022/05/15 04:04:41;;;;;;;36.90;8.73;;;;;;;-145.18;100.00;46644.78;5053095;28;20477;-78
2022/05/15 04:07:07;;;;;;;36.57;8.20;;;;;;;-145.18;100.00;46642.81;5052626;28;20068;-78
2022/05/15 04:09:33;;;;;;;33.27;8.43;;;;;;;-145.18;100.00;46640.88;5052895;28;20045;-79
2022/05/15 04:11:59;;;;;;;25.90;7.30;;;;;;;-145.18;100.00;46638.91;5051927;28;20045;-77
2022/05/15 04:14:24;;;;;;;33.37;8.20;;;;;;;-145.18;100.00;46635.00;5054473;28;20642;-77
2022/05/15 04:16:50;;;;;;;30.43;8.20;;;;;;;-145.18;100.00;46631.09;5052485;28;20385;-77
2022/05/15 04:19:15;;;;;;;31.63;7.30;;;;;;;-145.18;100.00;46631.09;5053704;28;20405;-78
2022/05/15 04:21:40;;;;;;;36.77;7.63;;;;;;;-145.18;100.00;46635.00;5052195;28;20028;-78
2022/05/15 04:24:12;;;;;;;41.40;8.90;;;;;;;-145.18;100.00;46629.13;5056376;28;20499;-78
2022/05/15 04:26:38;;;;;;;34.93;9.50;;;;;;;-145.18;100.00;46627.19;5071961;28;20025;-77
2022/05/15 04:29:04;;;;;;;39.10;7.33;;;;;;;-145.18;100.00;46621.31;5070615;28;20273;-78
2022/05/15 04:31:29;;;;;;;34.00;8.37;;;;;;;-145.18;100.00;46652.59;5072238;28;20262;-79
2022/05/15 04:33:55;;;;;;;33.07;8.10;;;;;;;-145.18;100.00;46638.91;5077869;28;20268;-80
2022/05/15 04:36:21;;;;;;;28.47;7.30;;;;;;;-145.18;100.00;46635.00;5072379;28;20046;-80
2022/05/15 04:38:46;;;;;;;30.23;6.83;;;;;;;-145.18;100.00;46635.00;5068544;28;20040;-79
2022/05/15 04:41:11;;;;;;;30.23;8.03;;;;;;;-145.18;100.00;46633.06;5072484;28;20476;-78
2022/05/15 04:43:37;;;;;;;35.13;8.53;;;;;;;-145.18;100.00;46635.00;5071399;28;20127;-78
2022/05/15 04:46:07;;;;;;;31.50;7.20;;;;;;;-145.18;100.00;46629.13;5071873;28;20339;-78
2022/05/15 04:48:36;;;;;;;31.00;8.97;;;;;;;-145.18;100.00;46633.06;5071615;28;20200;-79
2022/05/15 04:51:02;;;;;;;31.03;7.83;;;;;;;-145.18;100.00;46633.06;5071679;28;20265;-80
2022/05/15 04:53:28;;;;;;;26.37;7.50;;;;;;;-145.18;100.00;46635.00;5070354;28;20277;-79
2022/05/15 04:55:54;;;;;;;32.07;9.20;;;;;;;-145.18;100.00;46636.94;5071860;28;20320;-77
2022/05/15 04:58:20;;;;;;;28.83;8.23;;;;;;;-145.18;100.00;46633.06;5071925;28;20036;-79
2022/05/15 05:00:46;;;;;;;27.90;7.97;;;;;;;-145.18;100.00;46633.06;5072136;28;20607;-78
2022/05/15 05:03:11;;;;;;;28.80;8.30;;;;;;;-145.18;100.00;46636.94;5070916;28;20277;-80
2022/05/15 05:05:37;;;;;;;31.83;7.83;;;;;;;-145.18;100.00;46593.97;5071273;28;20036;-80
2022/05/15 05:08:05;;;;;;;35.57;8.17;;;;;;;-145.18;100.00;46582.25;5070546;28;20033;-78
2022/05/15 05:10:30;;;;;;;36.00;7.90;;;;;;;-145.18;100.00;46570.53;5071832;28;20036;-78
2022/05/15 05:12:55;;;;;;;36.37;8.23;;;;;;;-145.18;100.00;46552.97;5070990;28;20623;-78
2022/05/15 05:15:21;;;;;;;36.13;7.90;;;;;;;-145.18;100.00;46547.09;5071848;28;20083;-80
2022/05/15 05:17:46;;;;;;;36.93;8.63;;;;;;;-145.18;100.00;46541.25;5070857;28;20033;-77
2022/05/15 05:20:13;;;;;;;37.13;9.07;;;;;;;-145.18;100.00;46539.28;5071606;28;20040;-78
2022/05/15 05:22:39;;;;;;;28.40;8.77;;;;;;;-145.18;100.00;46541.25;5071017;28;20032;-77
2022/05/15 05:25:05;;;;;;;29.57;7.97;;;;;;;-145.18;100.00;46541.25;5071615;28;20575;-75
2022/05/15 05:27:31;;;;;;;33.03;7.40;;;;;;;-145.18;100.00;46541.25;5084471;28;20268;-76
2022/05/15 05:29:56;;;;;;;29.00;7.17;;;;;;;-145.18;100.00;46539.28;5070352;28;20304;-77
2022/05/15 05:32:22;;;;;;;38.87;7.63;;;;;;;-145.18;100.00;46547.09;5058359;28;20111;-77
2022/05/15 05:34:47;;;;;;;34.30;7.50;;;;;;;-145.18;100.00;46545.16;5071506;28;20068;-77
2022/05/15 05:37:15;;;;;;;24.37;7.17;;;;;;;-145.18;100.00;46552.97;5070814;28;20040;-76
2022/05/15 05:39:40;;;;;;;40.50;8.03;;;;;;;-145.18;100.00;46554.91;5070963;28;20032;-76
2022/05/15 05:42:06;;;;;;;23.80;7.03;;;;;;;-145.18;100.00;46556.88;5069489;28;20040;-77
2022/05/15 05:44:31;;;;;;;33.63;8.80;;;;;;;-145.18;100.00;46556.88;5070602;28;20439;-76
2022/05/15 05:46:56;;;;;;;29.10;8.20;;;;;;;-145.18;100.00;46547.09;5070905;28;20480;-77
2022/05/15 05:49:22;;;;;;;23.17;6.90;;;;;;;-145.18;100.00;46558.81;5070552;28;20093;-76
2022/05/15 05:51:47;;;;;;;28.90;7.93;;;;;;;-145.18;100.00;46562.72;5071286;28;20150;-77
2022/05/15 05:54:13;;;;;;;34.80;8.47;;;;;;;-145.18;100.00;46552.97;5070507;28;20044;-77
2022/05/15 05:56:38;;;;;;;31.23;7.80;;;;;;;-145.18;100.00;46552.97;5071070;28;20040;-76
2022/05/15 05:59:04;;;;;;;27.50;7.30;;;;;;;-145.18;100.00;46543.19;5069920;28;20035;-77
2022/05/15 06:01:29;;;;;;;30.43;7.90;;;;;;;-145.18;100.00;46554.91;5062844;28;20115;-76
2022/05/15 06:06:38;;;;;;;33.13;9.43;;;;;;;-145.18;100.00;46558.81;5053155;28;20047;-78
2022/05/15 06:09:04;;;;;;;28.53;7.73;;;;;;;-145.18;100.00;46552.97;5049620;28;20481;-75
2022/05/15 06:11:29;;;;;;;31.10;7.23;;;;;;;-145.18;100.00;46560.78;5050633;28;20041;-75
2022/05/15 06:13:54;;;;;;;31.60;7.63;;;;;;;-145.18;100.00;46560.78;5069085;28;20510;-76
2022/05/15 06:16:20;;;;;;;31.30;8.10;;;;;;;-145.18;100.00;46549.06;5070373;28;20040;-75
2022/05/15 06:18:46;;;;;;;35.03;9.50;;;;;;;-145.18;100.00;46552.97;5070263;28;20047;-77
2022/05/15 06:21:12;;;;;;;32.53;7.97;;;;;;;-145.18;100.00;46564.69;5057800;28;20036;-76
2022/05/15 06:23:37;;;;;;;29.53;7.83;;;;;;;-145.18;100.00;46560.78;5050305;28;20037;-76
2022/05/15 06:26:03;;;;;;;29.00;8.20;;;;;;;-145.18;100.00;46562.72;5050226;28;20029;-78
2022/05/15 06:28:29;;;;;;;29.67;8.03;;;;;;;-145.18;100.00;46562.72;5049953;28;20041;-75
2022/05/15 06:30:54;;;;;;;26.80;7.50;;;;;;;-145.18;100.00;46562.72;5050270;28;20065;-76
2022/05/15 06:33:20;;;;;;;26.63;8.03;;;;;;;-145.18;100.00;46552.97;5049877;28;20683;-75
2022/05/15 06:35:45;;;;;;;24.90;7.27;;;;;;;-145.18;100.00;46543.19;5050297;28;20044;-77
2022/05/15 06:38:11;;;;;;;45.53;9.27;;;;;;;-145.18;100.00;46554.91;5049484;28;20037;-77
2022/05/15 06:40:36;;;;;;;28.20;7.60;;;;;;;-145.18;100.00;46562.72;5050218;28;20115;-77
2022/05/15 06:43:02;;;;;;;29.07;8.00;;;;;;;-145.18;100.00;46558.81;5049819;28;20048;-77
2022/05/15 06:45:28;;;;;;;23.13;7.33;;;;;;;-145.18;100.00;46554.91;5058660;28;20047;-76
2022/05/15 06:47:54;;;;;;;34.80;8.77;;;;;;;-145.18;100.00;46558.81;5069590;28;20044;-76
2022/05/15 06:50:20;;;;;;;28.40;8.40;;;;;;;-145.18;100.00;46568.59;5070154;28;20081;-76
2022/05/15 06:52:45;;;;;;;32.00;7.83;;;;;;;-145.18;100.00;46568.59;5069590;28;20032;-76
2022/05/15 06:55:17;;;;;;;24.83;8.40;;;;;;;-145.18;100.00;46562.72;5069711;28;20569;-77
2022/05/15 06:57:44;;;;;;;24.13;7.97;;;;;;;-145.18;100.00;46568.59;5069729;28;20039;-78
2022/05/15 07:00:20;;;;;;;41.80;10.57;;;;;;;-145.18;100.00;46554.91;5069774;28;20028;-79
2022/05/15 07:02:46;;;;;;;;;;;;;;;-145.18;100.00;46552.97;5069936;28;20037;-80
2022/05/15 07:05:14;;;;;;;25.77;8.93;;;;;;;-145.18;100.00;46570.53;5069517;28;19920;-77
2022/05/15 07:07:40;;;;;;;33.27;8.60;;;;;;;-145.18;100.00;46576.41;5065832;28;20519;-77
2022/05/15 07:10:06;;;;;;;30.33;8.00;;;;;;;-145.18;100.00;46568.59;5049451;28;20033;-77
2022/05/15 07:12:31;;;;;;;26.40;9.13;;;;;;;-145.18;100.00;46566.63;5049389;28;20442;-76
2022/05/15 07:14:56;;;;;;;27.17;8.80;;;;;;;-145.18;100.00;46582.25;5063834;28;20076;-76
2022/05/15 07:17:22;;;;;;;27.70;9.23;;;;;;;-145.18;100.00;46574.44;5052613;28;20075;-77
2022/05/15 07:19:47;;;;;;;32.53;9.50;;;;;;;-145.18;100.00;46572.50;5063753;28;20044;-77
2022/05/15 07:22:13;;;;;;;27.73;8.87;;;;;;;-145.18;100.00;46576.41;5066551;28;20058;-77
2022/05/15 07:24:39;;;;;;;23.37;8.33;;;;;;;-145.18;100.00;46578.34;5072450;28;20037;-76
2022/05/15 07:27:09;;;;;;;39.00;9.40;;;;;;;-145.18;100.00;46586.16;5054985;28;20028;-77
2022/05/15 07:29:36;;;;;;;27.00;9.13;;;;;;;-145.18;100.00;46603.75;5073254;28;20037;-76
2022/05/15 07:32:06;;;;;;;32.77;9.47;;;;;;;-145.18;100.00;46593.97;5072875;28;20392;-77
2022/05/15 07:34:32;;;;;;;28.37;9.33;;;;;;;-145.18;100.00;46580.31;5072158;28;20064;-76
2022/05/15 07:36:57;;;;;;;25.83;9.00;;;;;;;-145.18;100.00;46578.34;5073111;28;20064;-76
2022/05/15 07:39:22;;;;;;;30.90;9.80;;;;;;;-145.18;100.00;46584.22;5073078;28;20037;-77
2022/05/15 07:41:49;;;;;;;25.67;9.43;;;;;;;-145.18;100.00;46613.50;5073489;28;20040;-76
2022/05/15 07:44:15;;;;;;;25.80;9.30;;;;;;;-145.18;100.00;46574.44;5072372;28;20041;-77
2022/05/15 07:46:40;;;;;;;30.63;9.33;;;;;;;-145.18;100.00;46590.06;5072664;28;20114;-77
2022/05/15 07:49:07;;;;;;;33.50;10.30;;;;;;;-145.18;100.00;46593.97;5070534;28;20442;-76
2022/05/15 07:51:33;;;;;;;24.93;9.47;;;;;;;-145.18;100.00;46636.94;5073244;28;20635;-76
2022/05/15 07:53:59;;;;;;;20.17;9.63;;;;;;;-145.18;100.00;46713.13;5072549;28;20112;-76
2022/05/15 07:56:25;;;;;;;22.60;9.30;;;;;;;-145.18;100.00;46763.91;5073163;28;20147;-76
2022/05/15 07:58:50;;;;;;;26.93;9.77;;;;;;;-145.18;100.00;47226.91;5072134;28;20043;-76
2022/05/15 08:01:16;;;;;;;26.53;9.60;;;;;;;-145.18;100.00;47219.09;5071607;28;20461;-76
2022/05/15 08:03:45;;;;;;;23.23;9.00;;;;;;;-145.18;100.00;47234.72;5072783;28;20089;-74
2022/05/15 08:08:58;;;;;;;;;;;;;;;-145.18;100.00;47195.66;5072832;28;20110;-76
2022/05/15 08:11:27;;;;;;;;;;;;;;;-145.18;100.00;47150.72;5073452;28;19916;-76
2022/05/15 08:13:55;;;;;;;26.10;10.10;;;;;;;-145.18;100.00;47199.56;5071891;28;19916;-76
2022/05/15 08:16:20;;;;;;;28.50;9.40;;;;;;;-145.18;100.00;47156.56;5053904;28;20112;-76
2022/05/15 08:24:33;;;;;;;26.20;10.23;;;;;;;-145.18;100.00;47119.47;5010153;28;20124;-76
2022/05/15 08:26:59;;;;;;;23.57;9.63;;;;;;;-145.18;100.00;47105.78;5010361;28;20177;-76
2022/05/15 08:29:25;;;;;;;21.87;9.50;;;;;;;-145.18;100.00;47103.81;5038693;28;20048;-76
2022/05/15 08:31:50;;;;;;;28.60;9.70;;;;;;;-145.18;100.00;47086.25;5054540;28;20029;-76
2022/05/15 08:34:16;;;;;;;22.97;10.00;;;;;;;-145.18;100.00;47086.25;5071732;28;20105;-76
2022/05/15 08:36:44;;;;;;;22.73;9.80;;;;;;;-145.18;100.00;47090.16;5072680;28;20127;-76
2022/05/15 08:39:10;;;;;;;28.97;10.10;;;;;;;-145.18;100.00;47066.72;5071853;28;20467;-76
2022/05/15 08:41:51;;;;;;;23.47;9.97;;;;;;;-145.18;100.00;47070.63;5072370;28;20028;-76
2022/05/15 08:44:23;;;;;;;25.00;9.40;;;;;;;-145.18;100.00;47056.94;5071620;28;20032;-76
2022/05/15 08:46:48;;;;;;;21.57;9.50;;;;;;;-145.18;100.00;47055.00;5072445;28;20031;-76
2022/05/15 08:49:19;;;;;;;24.80;8.83;;;;;;;-145.18;100.00;47060.84;5071601;28;20028;-76
2022/05/15 08:51:59;;;;;;;20.30;9.27;;;;;;;-145.18;100.00;47055.00;5072302;28;20021;-75
2022/05/15 08:54:26;;;;;;;27.00;9.80;;;;;;;-145.18;100.00;47047.19;5071571;28;20054;-76
2022/05/15 08:56:53;;;;;;;22.93;9.00;;;;;;;-145.18;100.00;47039.34;5072150;28;20485;-77
2022/05/15 08:59:30;;;;;;;25.50;10.83;;;;;;;-145.18;100.00;47043.28;5071446;28;20074;-76
2022/05/15 09:01:57;;;;;;;18.87;9.07;;;;;;;-145.18;100.00;47023.72;5071836;28;20034;-76
2022/05/15 09:04:24;;;;;;;18.77;9.87;;;;;;;-145.18;100.00;47023.72;5071342;28;20047;-76
2022/05/15 09:07:36;;;;;;;21.43;9.33;;;;;;;-145.18;100.00;47035.44;5071887;28;20101;-76
2022/05/15 09:10:26;;;;;;;20.03;10.90;;;;;;;-145.18;100.00;47012.00;5067051;28;20040;-76
2022/05/15 09:13:12;;;;;;;18.60;9.40;;;;;;;-145.18;100.00;47019.81;5071605;28;20500;-76
2022/05/15 09:15:57;;;;;;;23.83;9.55;;;;;;;-145.18;100.00;47004.19;5071494;28;20571;-76
2022/05/15 09:18:23;;;;;;;20.50;9.70;;;;;;;-145.18;100.00;47012.00;5070867;28;20036;-76
2022/05/15 09:21:03;;;;;;;20.17;8.80;;;;;;;-145.18;100.00;47015.91;5071311;28;20025;-76
2022/05/15 09:23:38;;;;;;;23.93;9.37;;;;;;;-145.18;100.00;47013.97;5070977;28;20038;-76
2022/05/15 09:26:12;;;;;;;28.50;9.63;;;;;;;-145.18;100.00;46998.34;5071237;28;20040;-76
2022/05/15 09:28:47;;;;;;;16.73;8.90;;;;;;;-145.18;100.00;47027.63;5070201;28;20082;-76
2022/05/15 09:31:23;;;;;;;19.48;8.43;;;;;;;-145.18;100.00;47004.19;5071238;28;20074;-76
2022/05/15 09:34:07;;;;;;;20.53;8.40;;;;;;;-145.18;100.00;47004.19;5070809;28;20324;-76
2022/05/15 09:36:33;;;;;;;22.77;8.57;;;;;;;-145.18;100.00;47006.16;5070830;28;20036;-76
2022/05/15 09:39:25;;;;;;;19.50;9.00;;;;;;;-145.18;100.00;46996.38;5070181;28;20071;-76
2022/05/15 09:44:56;;;;;;;18.63;7.87;;;;;;;-145.18;100.00;46996.38;5070367;28;20062;-76
2022/05/15 09:47:32;;;;;;;21.03;7.00;;;;;;;-145.18;100.00;47000.28;5070874;28;20025;-76
2022/05/15 09:49:58;;;;;;;19.98;7.85;;;;;;;-145.18;100.00;46996.38;5070729;28;20020;-76
2022/05/15 09:52:32;;;;;;;15.90;7.77;;;;;;;-145.18;100.00;46996.38;5071082;28;20028;-76
2022/05/15 09:55:11;;;;;;;19.30;7.77;;;;;;;-145.18;100.00;47017.88;5070496;28;20047;-76
2022/05/15 09:57:38;;;;;;;21.63;8.30;;;;;;;-145.18;100.00;46998.34;5052798;28;20044;-76
2022/05/15 10:00:11;;;;;;;21.33;9.13;;;;;;;-145.18;100.00;46996.38;5070223;28;20024;-76
2022/05/15 10:02:39;;;;;;;22.30;7.60;;;;;;;-145.18;100.00;46986.63;5068932;28;20040;-76
2022/05/15 10:05:27;;;;;;;18.47;7.83;;;;;;;-145.18;100.00;46990.53;5068668;28;20429;-76
2022/05/15 10:08:19;;;;;;;17.90;7.53;;;;;;;-145.18;100.00;46980.75;5070181;28;20060;-76
2022/05/15 10:11:02;;;;;;;18.83;7.60;;;;;;;-145.18;100.00;46986.63;5070407;28;20112;-76
2022/05/15 10:13:52;;;;;;;17.20;6.73;;;;;;;-145.18;100.00;46972.94;5069900;28;20067;-76
2022/05/15 10:16:17;;;;;;;16.77;6.80;;;;;;;-145.18;100.00;46955.34;5070150;28;20036;-77
2022/05/15 10:18:46;;;;;;;15.73;6.83;;;;;;;-145.18;100.00;46971.00;5070154;28;20305;-76
2022/05/15 10:21:13;;;;;;;14.37;6.53;;;;;;;-145.18;100.00;46951.44;5069626;28;20036;-76
2022/05/15 10:23:49;;;;;;;22.97;7.27;;;;;;;-145.18;100.00;46953.41;5069672;28;20079;-76
2022/05/15 10:26:24;;;;;;;20.97;7.07;;;;;;;-145.18;100.00;46965.13;5069557;28;20032;-76
2022/05/15 10:29:07;;;;;;;16.53;6.00;;;;;;;-145.18;100.00;46961.22;5068146;28;20111;-76
2022/05/15 10:31:41;;;;;;;21.00;6.20;;;;;;;-145.18;100.00;46947.53;5069621;28;20063;-75
2022/05/15 10:34:18;;;;;;;14.98;6.15;;;;;;;-145.18;100.00;46959.25;5069500;28;20044;-76
2022/05/15 10:36:46;;;;;;;23.63;6.70;;;;;;;-145.18;100.00;46969.03;5069191;28;20032;-75
2022/05/15 10:39:21;;;;;;;18.27;6.33;;;;;;;-145.18;100.00;46972.94;5068185;28;20040;-76
2022/05/15 10:42:19;;;;;;;17.65;5.95;;;;;;;-145.18;100.00;46957.31;5069893;28;20036;-75
2022/05/15 10:45:04;;;;;;;14.20;5.57;;;;;;;-145.18;100.00;46949.50;5069683;28;20166;-74
2022/05/15 10:47:45;;;;;;;13.50;5.27;;;;;;;-145.18;100.00;46951.44;5069480;28;20021;-75
2022/05/15 10:50:29;;;;;;;13.20;5.10;;;;;;;-145.18;100.00;46945.59;5066765;28;20027;-75
2022/05/15 10:52:55;;;;;;;16.93;5.50;;;;;;;-145.18;100.00;46953.41;5068423;28;20548;-75
2022/05/15 10:59:00;;;;;;;18.67;5.10;;;;;;;-145.18;100.00;46943.63;5034761;28;20056;-75
2022/05/15 11:01:44;;;;;;;16.90;4.87;;;;;;;-145.18;100.00;46935.81;5068811;28;20397;-75
2022/05/15 11:04:17;;;;;;;15.57;5.27;;;;;;;-145.18;100.00;46933.88;5068589;28;20045;-75
2022/05/15 11:07:04;;;;;;;15.05;4.85;;;;;;;-145.18;97.16;46931.91;5068847;28;20025;-75
2022/05/15 11:09:54;;;;;;;12.48;4.90;;;;;;;-145.18;95.26;46941.69;5068985;28;20025;-76
2022/05/15 11:12:38;;;;;;;14.38;4.78;;;;;;;-145.18;90.01;46933.88;5068279;28;20055;-75
2022/05/15 11:15:29;;;;;;;13.25;4.38;;;;;;;-145.18;90.62;46945.59;5069078;28;20029;-76
2022/05/15 11:18:03;;;;;;;17.20;4.82;;;;;;;-145.18;90.12;46937.78;5068834;28;20024;-75
2022/05/15 11:20:39;;;;;;;14.23;4.63;;;;;;;-145.18;85.34;46929.97;5069085;28;20033;-76
2022/05/15 11:23:24;;;;;;;13.32;4.80;;;;;;;-145.18;86.57;46929.97;5069000;28;20025;-75
2022/05/15 11:25:55;;;;;;;21.17;5.60;;;;;;;-145.18;89.44;46926.06;5066286;28;20036;-74
2022/05/15 11:28:45;;;;;;;14.95;5.05;;;;;;;-145.18;87.45;46924.09;5069354;28;20028;-75
2022/05/15 11:31:17;;;;;;;14.70;4.80;;;;;;;-145.18;80.90;46931.91;5069039;28;20067;-75